»·PEaware :: N26504 KONT-KSNA

N26504 :: KONT-KSNA

FLIGHT INFORMATION

Flight Status: Arrived
Operator: Privately registered:
United States
More flights under this callsign
Pilot: Anonymous 18969 (18969)
Aircraft: CESSNA 172 SKYHAWK
(C172)
More flights by this aircraft type
Origin: KONT Ontario Intl
United States
Destination: KSNA John Wayne-Orange Co
United States
More flights between these airports :: More routes between these airports
Route: +PDZ PDZ270/013 RNDAL V363 POXKU V8 SLI
File this flight plan on PilotEdge
Remarks:
Altitude:
(Current/Filed)
4,000ft
Speed:
(Current/Filed)
0kts
Departed: 14-Sep-18 10:03 AM
Arrived: 14-Sep-18 10:56 AM
Distance/Time
Traveled:
26nm/0:53
Distance/Time
To Go:
Arrived

Flight Plot

Page will automatically refresh every two minutes.

Flight plan parsing failed; only flown route is shown


Map Options




Map Legend


Flown Route
Filed Route
Departure Airport
Arrival Airport
Navaid (VOR, NDB)
Fix

Horizontal Profiles

Position Reports

Time Latitude Longitude Heading Altitude Ground
Speed
14-Sep-18 09:37 34.061321 -117.606815 304 947ft 0kts
14-Sep-18 09:38 34.061321 -117.606815 304 947ft 0kts
14-Sep-18 09:39 34.061321 -117.606815 304 947ft 0kts
14-Sep-18 09:40 34.061321 -117.606815 304 947ft 0kts
14-Sep-18 09:41 34.061321 -117.606815 304 947ft 0kts
14-Sep-18 09:42 34.061321 -117.606815 304 947ft 0kts
14-Sep-18 09:43 34.061321 -117.606815 304 947ft 0kts
14-Sep-18 09:44 34.061321 -117.606815 304 947ft 0kts
14-Sep-18 09:45 34.061321 -117.606815 304 947ft 0kts
14-Sep-18 09:46 34.061321 -117.606815 304 947ft 0kts
14-Sep-18 09:47 34.061321 -117.606815 304 947ft 0kts
14-Sep-18 09:48 34.061321 -117.606815 304 947ft 0kts
14-Sep-18 09:49 34.061321 -117.606815 304 947ft 0kts
14-Sep-18 09:50 34.061321 -117.606815 304 947ft 0kts
14-Sep-18 09:51 34.061321 -117.606815 304 947ft 0kts
14-Sep-18 09:52 34.061321 -117.606815 304 947ft 0kts
14-Sep-18 09:53 34.061321 -117.606815 304 947ft 0kts
14-Sep-18 09:54 34.061321 -117.606815 304 947ft 0kts
14-Sep-18 09:55 34.061321 -117.606815 304 947ft 0kts
14-Sep-18 09:56 34.061321 -117.606815 304 947ft 0kts
14-Sep-18 09:57 34.061321 -117.606815 304 947ft 0kts
14-Sep-18 09:58 34.061321 -117.606815 304 947ft 0kts
14-Sep-18 09:59 34.061321 -117.606816 304 947ft 0kts
14-Sep-18 10:00 34.061367 -117.606908 300 947ft 2kts
14-Sep-18 10:01 34.061245 -117.606660 300 947ft 0kts
14-Sep-18 10:02 34.061245 -117.606661 300 947ft 0kts
14-Sep-18 10:03 34.060121 -117.607009 193 947ft 8kts
14-Sep-18 10:04 34.058631 -117.608379 199 947ft 25kts
14-Sep-18 10:05 34.053749 -117.602561 116 947ft 44kts
14-Sep-18 10:06 34.052114 -117.598401 114 947ft 47kts
14-Sep-18 10:07 34.050018 -117.592139 119 947ft 19kts
14-Sep-18 10:08 34.049880 -117.591789 103 947ft 0kts
14-Sep-18 10:09 34.049880 -117.591789 103 947ft 0kts
14-Sep-18 10:10 34.049880 -117.591788 103 947ft 0kts
14-Sep-18 10:11 34.049862 -117.591677 98 947ft 0kts
14-Sep-18 10:12 34.049862 -117.591676 98 947ft 0kts
14-Sep-18 10:13 34.049862 -117.591675 98 947ft 0kts
14-Sep-18 10:14 34.053559 -117.590382 28 947ft 16kts
14-Sep-18 10:15 34.053695 -117.589191 79 947ft 26kts
14-Sep-18 10:16 34.053646 -117.584243 89 947ft 8kts
14-Sep-18 10:17 34.053647 -117.584031 89 947ft 0kts
14-Sep-18 10:18 34.053699 -117.583566 81 947ft 15kts
14-Sep-18 10:19 34.053776 -117.582893 82 947ft 0kts
14-Sep-18 10:20 34.053776 -117.582893 82 947ft 0kts
14-Sep-18 10:21 34.053997 -117.582792 8 947ft 0kts
14-Sep-18 10:22 34.053997 -117.582792 8 947ft 0kts
14-Sep-18 10:23 34.053997 -117.582792 8 947ft 0kts
14-Sep-18 10:24 34.053997 -117.582792 8 947ft 0kts
14-Sep-18 10:25 34.053997 -117.582792 8 947ft 0kts
14-Sep-18 10:26 34.053997 -117.582792 8 947ft 0kts
14-Sep-18 10:27 34.053997 -117.582792 8 947ft 0kts
14-Sep-18 10:28 34.054007 -117.582791 3 947ft 1kts
14-Sep-18 10:29 34.055590 -117.594141 272 1147ft 74kts
14-Sep-18 10:30 34.057157 -117.621241 272 1922ft 86kts
14-Sep-18 10:31 34.058866 -117.651020 272 2644ft 91kts
14-Sep-18 10:32 34.059892 -117.668902 272 3055ft 91kts
14-Sep-18 10:33 34.049474 -117.693704 222 3758ft 88kts
14-Sep-18 10:34 34.029730 -117.716595 222 4016ft 113kts
14-Sep-18 10:35 34.011813 -117.737317 222 4000ft 118kts
14-Sep-18 10:36 33.988051 -117.764780 222 4000ft 118kts
14-Sep-18 10:37 33.966889 -117.776976 181 4004ft 118kts
14-Sep-18 10:38 33.934123 -117.782399 186 4000ft 118kts
14-Sep-18 10:39 33.901414 -117.787364 186 4000ft 119kts
14-Sep-18 10:40 33.868141 -117.791645 172 3991ft 122kts
14-Sep-18 10:41 33.832668 -117.780541 163 3430ft 134kts
14-Sep-18 10:42 33.815673 -117.807392 272 3004ft 126kts
14-Sep-18 10:43 33.817048 -117.832319 272 2997ft 121kts
14-Sep-18 10:44 33.819280 -117.872474 272 2999ft 119kts
14-Sep-18 10:45 33.838609 -117.886186 31 3020ft 118kts
14-Sep-18 10:46 33.866381 -117.863846 32 2999ft 119kts
14-Sep-18 10:47 33.894050 -117.841556 32 3000ft 119kts
14-Sep-18 10:48 33.913463 -117.813193 91 3019ft 117kts
14-Sep-18 10:49 33.911274 -117.773125 92 2999ft 119kts
14-Sep-18 10:50 33.886470 -117.759855 183 3005ft 119kts
14-Sep-18 10:51 33.853236 -117.763224 183 2999ft 119kts
14-Sep-18 10:52 33.822208 -117.775551 206 3000ft 120kts
14-Sep-18 10:53 33.791422 -117.795046 206 2755ft 124kts
14-Sep-18 10:54 33.765111 -117.811784 206 2141ft 90kts
14-Sep-18 10:55 33.743072 -117.826405 207 1537ft 94kts
14-Sep-18 10:56 33.718855 -117.841000 206 1158ft 105kts
14-Sep-18 10:57 33.694632 -117.856789 208 368ft 81kts
14-Sep-18 10:58 33.678126 -117.867003 213 59ft 39kts
14-Sep-18 10:59 33.675720 -117.869863 277 59ft 0kts
14-Sep-18 11:00 33.675720 -117.869863 277 59ft 0kts
14-Sep-18 11:01 33.675720 -117.869863 277 59ft 0kts
14-Sep-18 11:02 33.675720 -117.869863 277 59ft 0kts

Navigation Log

Ident Type
Flight plan parsing failed, navigation log unavailable